createdAt,value
2017-05-26T00:01:04.232Z,13.90
2017-05-26T00:03:33.297Z,13.90
2017-05-26T00:06:02.358Z,13.90
2017-05-26T00:08:31.566Z,14.00
2017-05-26T00:11:00.639Z,13.90
2017-05-26T00:13:30.340Z,14.00
2017-05-26T00:15:59.410Z,14.10
2017-05-26T00:18:28.477Z,14.10
2017-05-26T00:20:57.570Z,14.20
2017-05-26T00:23:26.655Z,14.20
2017-05-26T00:25:55.895Z,14.30
2017-05-26T00:28:24.967Z,14.30
2017-05-26T00:30:54.031Z,14.40
2017-05-26T00:33:23.134Z,14.40
2017-05-26T00:35:52.198Z,14.40
2017-05-26T00:38:21.483Z,14.50
2017-05-26T00:40:50.559Z,14.40
2017-05-26T00:43:19.629Z,14.50
2017-05-26T00:45:49.062Z,14.60
2017-05-26T00:48:18.128Z,14.60
2017-05-26T00:50:47.208Z,14.60
2017-05-26T00:53:16.440Z,14.50
2017-05-26T00:55:45.503Z,14.50
2017-05-26T00:58:15.135Z,14.60
2017-05-26T01:00:44.233Z,14.60
2017-05-26T01:03:13.299Z,14.60
2017-05-26T01:05:42.515Z,14.60
2017-05-26T01:08:11.591Z,14.50
2017-05-26T01:10:40.662Z,14.50
2017-05-26T01:13:09.783Z,14.50
2017-05-26T01:15:38.858Z,14.40
2017-05-26T01:18:08.319Z,14.40
2017-05-26T01:20:37.427Z,14.40
2017-05-26T01:23:06.542Z,14.40
2017-05-26T01:25:35.642Z,14.30
2017-05-26T01:28:04.720Z,14.30
2017-05-26T01:30:34.208Z,14.30
2017-05-26T01:33:03.569Z,14.30
2017-05-26T01:35:32.639Z,14.30
2017-05-26T01:38:01.854Z,14.30
2017-05-26T01:40:30.943Z,14.30
2017-05-26T01:43:00.020Z,14.30
2017-05-26T01:45:29.274Z,14.40
2017-05-26T01:47:58.358Z,14.40
2017-05-26T01:50:27.487Z,14.30
2017-05-26T01:52:56.980Z,14.30
2017-05-26T01:55:26.063Z,14.40
2017-05-26T01:57:55.118Z,14.40
2017-05-26T02:00:24.331Z,14.40
2017-05-26T02:02:53.403Z,14.40
2017-05-26T02:05:22.487Z,14.40
2017-05-26T02:07:51.951Z,14.40
2017-05-26T02:10:21.021Z,14.40
2017-05-26T02:12:50.092Z,14.40
2017-05-26T02:15:19.191Z,14.30
2017-05-26T02:17:48.284Z,14.30
2017-05-26T02:20:17.740Z,14.30
2017-05-26T02:22:46.818Z,14.30
2017-05-26T02:25:15.886Z,14.20
2017-05-26T02:27:46.379Z,14.20
2017-05-26T02:30:15.444Z,14.30
2017-05-26T02:32:44.657Z,14.30
2017-05-26T02:35:13.738Z,14.40
2017-05-26T02:37:42.815Z,14.40
2017-05-26T02:40:11.910Z,14.40
2017-05-26T02:42:40.985Z,14.50
2017-05-26T02:45:10.480Z,14.50
2017-05-26T02:47:39.503Z,14.60
2017-05-26T02:50:08.571Z,14.60
2017-05-26T02:52:38.015Z,14.70
2017-05-26T02:55:07.091Z,14.70
2017-05-26T02:57:36.151Z,14.70
2017-05-26T03:00:05.264Z,14.80
2017-05-26T03:02:35.116Z,14.80
2017-05-26T03:05:04.215Z,14.80
2017-05-26T03:07:33.295Z,14.80
2017-05-26T03:10:02.504Z,14.80
2017-05-26T03:12:31.598Z,14.70
2017-05-26T03:15:00.703Z,14.70
2017-05-26T03:17:29.787Z,14.60
2017-05-26T03:19:58.872Z,14.50
2017-05-26T03:22:28.489Z,14.40
2017-05-26T03:24:57.592Z,14.40
2017-05-26T03:27:26.670Z,14.40
2017-05-26T03:29:55.882Z,14.40
2017-05-26T03:32:24.947Z,14.40
2017-05-26T03:34:54.019Z,14.40
2017-05-26T03:37:23.230Z,14.30
2017-05-26T03:39:52.308Z,14.40
2017-05-26T03:42:21.386Z,14.50
2017-05-26T03:44:50.643Z,14.60
2017-05-26T03:47:19.720Z,14.70
2017-05-26T03:49:48.796Z,14.80
2017-05-26T03:52:18.013Z,14.90
2017-05-26T03:54:47.091Z,14.90
2017-05-26T03:57:15.388Z,14.90
2017-05-26T03:59:44.474Z,15.10
2017-05-26T04:02:13.544Z,15.10
2017-05-26T04:04:42.736Z,15.20
2017-05-26T04:07:11.817Z,15.10
2017-05-26T04:09:40.890Z,15.10
2017-05-26T04:12:10.334Z,15.10
2017-05-26T04:14:39.412Z,15.10
2017-05-26T04:17:08.506Z,15.10
2017-05-26T04:19:37.612Z,15.10
2017-05-26T04:22:06.694Z,15.10
2017-05-26T04:24:35.875Z,15.10
2017-05-26T04:27:04.942Z,15.00
2017-05-26T04:29:34.022Z,15.00
2017-05-26T04:32:03.257Z,15.10
2017-05-26T04:34:32.340Z,15.20
2017-05-26T04:37:01.439Z,15.10
2017-05-26T04:39:30.647Z,15.10
2017-05-26T04:41:59.729Z,15.10
2017-05-26T04:44:28.827Z,15.20
2017-05-26T04:46:58.090Z,15.20
2017-05-26T04:49:27.151Z,15.30
2017-05-26T04:51:56.237Z,15.40
2017-05-26T04:54:25.343Z,15.60
2017-05-26T04:56:54.414Z,15.70
2017-05-26T04:59:23.622Z,15.70
2017-05-26T05:01:52.763Z,15.80
2017-05-26T05:04:21.856Z,15.70
2017-05-26T05:06:51.135Z,15.80
2017-05-26T05:09:20.215Z,15.80
2017-05-26T05:11:49.315Z,15.80
2017-05-26T05:14:18.519Z,15.70
2017-05-26T05:16:47.582Z,15.70
2017-05-26T05:19:17.168Z,15.70
2017-05-26T05:21:46.230Z,15.70
2017-05-26T05:24:15.287Z,15.80
2017-05-26T05:26:44.374Z,15.80
2017-05-26T05:29:13.455Z,16.00
2017-05-26T05:31:42.960Z,16.10
2017-05-26T05:34:12.023Z,16.10
2017-05-26T05:36:41.120Z,16.30
2017-05-26T05:39:10.223Z,16.50
2017-05-26T05:41:39.300Z,16.50
2017-05-26T05:44:08.456Z,16.50
2017-05-26T05:46:37.518Z,16.70
2017-05-26T05:49:06.763Z,16.80
2017-05-26T05:51:35.845Z,16.80
2017-05-26T05:54:04.907Z,16.80
2017-05-26T05:56:33.996Z,16.90
2017-05-26T05:59:03.074Z,17.10
2017-05-26T06:01:32.547Z,17.30
2017-05-26T06:04:01.638Z,17.40
2017-05-26T06:06:30.718Z,17.30
2017-05-26T06:08:59.823Z,17.30
2017-05-26T06:11:29.101Z,17.20
2017-05-26T06:13:58.199Z,17.10
2017-05-26T06:16:27.287Z,17.10
2017-05-26T06:18:56.671Z,17.00
2017-05-26T06:21:25.750Z,17.20
2017-05-26T06:23:54.823Z,17.40
2017-05-26T06:26:24.029Z,17.50
2017-05-26T06:28:53.099Z,17.60
2017-05-26T06:31:22.179Z,17.70
2017-05-26T06:33:51.394Z,17.90
2017-05-26T06:36:20.461Z,17.80
2017-05-26T06:38:49.539Z,17.80
2017-05-26T06:41:18.743Z,17.80
2017-05-26T06:43:47.830Z,17.80
2017-05-26T06:46:16.918Z,17.90
2017-05-26T06:48:46.221Z,18.00
2017-05-26T06:51:15.295Z,18.20
2017-05-26T06:53:44.363Z,18.40
2017-05-26T06:56:13.588Z,18.40
2017-05-26T06:58:42.659Z,18.40
2017-05-26T07:01:11.764Z,18.40
2017-05-26T07:03:40.967Z,18.40
2017-05-26T07:06:10.039Z,18.50
2017-05-26T07:08:39.130Z,18.50
2017-05-26T07:11:08.963Z,18.60
2017-05-26T07:13:38.079Z,18.40
2017-05-26T07:16:07.182Z,18.50
2017-05-26T07:18:36.395Z,18.50
2017-05-26T07:21:05.468Z,18.60
2017-05-26T07:23:34.565Z,18.60
2017-05-26T07:26:03.871Z,18.70
2017-05-26T07:28:32.955Z,18.60
2017-05-26T07:31:02.064Z,18.60
2017-05-26T07:33:31.159Z,18.60
2017-05-26T07:36:00.309Z,18.70
2017-05-26T07:38:29.466Z,18.50
2017-05-26T07:40:58.543Z,18.70
2017-05-26T07:43:27.639Z,18.70
2017-05-26T07:45:56.864Z,18.70
2017-05-26T07:48:25.955Z,18.80
2017-05-26T07:50:55.025Z,18.90
2017-05-26T07:53:24.120Z,18.80
2017-05-26T07:55:53.203Z,18.80
2017-05-26T07:58:22.471Z,19.00
2017-05-26T08:00:51.555Z,19.00
2017-05-26T08:03:20.655Z,19.20
2017-05-26T08:05:49.881Z,19.70
2017-05-26T08:08:18.980Z,20.00
2017-05-26T08:10:49.069Z,19.90
2017-05-26T08:13:18.173Z,19.80
2017-05-26T08:15:47.262Z,19.60
2017-05-26T08:18:16.407Z,19.80
2017-05-26T08:20:45.503Z,20.10
2017-05-26T08:23:14.595Z,20.20
2017-05-26T08:25:43.688Z,20.20
2017-05-26T08:28:13.470Z,20.60
2017-05-26T08:30:42.577Z,20.80
2017-05-26T08:33:11.670Z,20.70
2017-05-26T08:35:40.839Z,20.70
2017-05-26T08:38:09.931Z,20.60
2017-05-26T08:40:39.176Z,20.60
2017-05-26T08:43:08.613Z,20.80
2017-05-26T08:45:37.717Z,20.30
2017-05-26T08:48:06.829Z,20.20
2017-05-26T08:50:35.920Z,20.10
2017-05-26T08:53:04.527Z,20.10
2017-05-26T08:55:33.649Z,19.70
2017-05-26T08:58:02.745Z,19.50
2017-05-26T09:00:31.967Z,19.40
2017-05-26T09:03:01.168Z,19.20
2017-05-26T09:05:30.306Z,19.10
2017-05-26T09:07:59.423Z,19.10
2017-05-26T09:10:28.501Z,19.00
2017-05-26T09:12:57.749Z,18.90
2017-05-26T09:15:26.835Z,18.90
2017-05-26T09:17:56.023Z,18.80
2017-05-26T09:20:25.249Z,18.80
2017-05-26T09:22:54.356Z,18.90
2017-05-26T09:25:23.457Z,18.90
2017-05-26T09:27:52.576Z,19.10
2017-05-26T09:30:21.677Z,19.10
2017-05-26T09:32:50.839Z,19.10
2017-05-26T09:35:19.921Z,19.00
2017-05-26T09:37:49.140Z,19.00
2017-05-26T09:40:18.236Z,19.10
2017-05-26T09:42:47.327Z,19.20
2017-05-26T09:45:16.880Z,19.30
2017-05-26T09:47:45.992Z,19.30
2017-05-26T09:50:15.088Z,19.40
2017-05-26T09:52:44.295Z,19.30
2017-05-26T09:55:13.387Z,19.30
2017-05-26T09:57:42.459Z,19.40
2017-05-26T10:00:11.764Z,19.50
2017-05-26T10:02:40.860Z,19.70
2017-05-26T10:05:09.934Z,19.80
2017-05-26T10:07:39.465Z,19.90
2017-05-26T10:10:08.632Z,20.00
2017-05-26T10:12:37.716Z,20.10
2017-05-26T10:15:06.830Z,20.10
2017-05-26T10:17:35.980Z,20.20
2017-05-26T10:20:05.212Z,20.30
2017-05-26T10:22:34.279Z,20.40
2017-05-26T10:25:03.373Z,20.40
2017-05-26T10:27:32.596Z,20.50
2017-05-26T10:30:01.691Z,20.60
2017-05-26T10:32:30.871Z,20.70
2017-05-26T10:35:00.132Z,20.80
2017-05-26T10:37:29.245Z,20.80
2017-05-26T10:39:58.340Z,20.80
2017-05-26T10:42:27.468Z,20.80
2017-05-26T10:44:56.602Z,20.80
2017-05-26T10:47:25.917Z,20.80
2017-05-26T10:49:54.998Z,20.90
2017-05-26T10:52:24.078Z,21.00
2017-05-26T10:54:53.335Z,21.10
2017-05-26T10:57:22.555Z,20.90
2017-05-26T10:59:52.350Z,20.90
2017-05-26T11:02:21.533Z,21.00
2017-05-26T11:04:50.817Z,21.10
2017-05-26T11:07:20.116Z,21.00
2017-05-26T11:09:49.341Z,20.90
2017-05-26T11:12:18.735Z,21.10
2017-05-26T11:14:47.932Z,21.20
2017-05-26T11:17:17.066Z,21.30
2017-05-26T11:19:46.707Z,21.30
2017-05-26T11:22:15.783Z,21.40
2017-05-26T11:24:44.924Z,21.50
2017-05-26T11:27:13.991Z,21.50
2017-05-26T11:29:43.244Z,21.50
2017-05-26T11:32:12.362Z,21.70
2017-05-26T11:34:43.006Z,21.80
2017-05-26T11:37:12.435Z,21.90
2017-05-26T11:39:41.604Z,21.90
2017-05-26T11:42:10.856Z,21.80
2017-05-26T11:44:40.045Z,21.90
2017-05-26T11:47:09.243Z,22.10
2017-05-26T11:49:39.111Z,22.10
2017-05-26T11:52:10.062Z,22.30
2017-05-26T11:54:41.337Z,22.30
2017-05-26T11:57:10.849Z,22.40
2017-05-26T11:59:40.191Z,22.40
2017-05-26T12:02:09.367Z,22.40
2017-05-26T12:04:38.495Z,22.50
2017-05-26T12:07:07.763Z,22.60
2017-05-26T12:09:36.886Z,22.80
2017-05-26T12:12:06.399Z,23.00
2017-05-26T12:14:35.575Z,22.90
2017-05-26T12:17:04.802Z,22.90
2017-05-26T12:19:33.942Z,22.90
2017-05-26T12:22:03.151Z,23.00
2017-05-26T12:24:32.285Z,23.10
2017-05-26T12:27:01.570Z,23.20
2017-05-26T12:29:30.734Z,23.20
2017-05-26T12:31:59.918Z,23.10
2017-05-26T12:34:29.371Z,23.10
2017-05-26T12:36:58.723Z,23.10
2017-05-26T12:39:27.831Z,23.20
2017-05-26T12:41:56.972Z,23.30
2017-05-26T12:44:26.314Z,23.30
2017-05-26T12:46:55.483Z,23.30
2017-05-26T12:49:24.555Z,23.30
2017-05-26T12:51:53.682Z,23.40
2017-05-26T12:54:22.777Z,23.50
2017-05-26T12:56:51.930Z,23.60
2017-05-26T12:59:21.039Z,23.40
2017-05-26T13:01:50.174Z,23.40
2017-05-26T13:04:19.296Z,23.60
2017-05-26T13:06:47.622Z,23.50
2017-05-26T13:09:16.719Z,23.70
2017-05-26T13:11:45.874Z,23.70
2017-05-26T13:14:14.976Z,23.80
2017-05-26T13:16:44.267Z,23.70
2017-05-26T13:19:13.456Z,23.80
2017-05-26T13:21:42.619Z,23.90
2017-05-26T13:24:11.688Z,24.00
2017-05-26T13:26:40.794Z,24.10
2017-05-26T13:29:09.950Z,24.20
2017-05-26T13:31:39.096Z,24.30
2017-05-26T13:34:08.163Z,24.40
2017-05-26T13:36:37.277Z,24.40
2017-05-26T13:39:06.403Z,24.40
2017-05-26T13:41:35.519Z,24.50
2017-05-26T13:44:04.646Z,24.40
2017-05-26T13:46:34.371Z,24.30
2017-05-26T13:49:03.487Z,24.30
2017-05-26T13:51:32.583Z,24.40
2017-05-26T13:54:01.769Z,24.50
2017-05-26T13:56:30.819Z,24.50
2017-05-26T13:59:00.022Z,24.50
2017-05-26T14:01:29.161Z,24.50
2017-05-26T14:03:58.303Z,24.60
2017-05-26T14:06:27.442Z,24.70
2017-05-26T14:08:56.513Z,24.80
2017-05-26T14:11:25.635Z,24.80
2017-05-26T14:13:54.796Z,24.80
2017-05-26T14:16:23.919Z,24.80
2017-05-26T14:18:53.088Z,24.80
2017-05-26T14:21:22.192Z,24.80
2017-05-26T14:23:51.351Z,24.80
2017-05-26T14:26:20.477Z,24.90
2017-05-26T14:28:49.683Z,24.90
2017-05-26T14:31:18.841Z,24.90
2017-05-26T14:33:47.963Z,25.00
2017-05-26T14:36:17.101Z,24.90
2017-05-26T14:38:46.229Z,24.90
2017-05-26T14:41:15.400Z,25.00
2017-05-26T14:43:44.547Z,25.00
2017-05-26T14:46:13.712Z,25.20
2017-05-26T14:48:42.818Z,25.30
2017-05-26T14:51:11.996Z,25.30
2017-05-26T14:53:41.106Z,25.30
2017-05-26T14:56:10.230Z,25.40
2017-05-26T14:58:39.345Z,25.50
2017-05-26T15:01:09.268Z,25.70
2017-05-26T15:03:38.387Z,26.10
2017-05-26T15:06:07.540Z,26.30
2017-05-26T15:08:36.696Z,26.80
2017-05-26T15:11:05.867Z,27.00
2017-05-26T15:13:35.003Z,27.50
2017-05-26T15:16:04.363Z,28.20
2017-05-26T15:18:33.486Z,28.50
2017-05-26T15:21:02.628Z,29.10
2017-05-26T15:23:31.802Z,29.80
2017-05-26T15:26:00.947Z,30.30
2017-05-26T15:28:30.071Z,30.60
2017-05-26T15:30:59.223Z,30.60
2017-05-26T15:33:28.408Z,30.90
2017-05-26T15:35:57.588Z,31.30
2017-05-26T15:38:26.771Z,32.00
2017-05-26T15:40:55.892Z,33.00
2017-05-26T15:43:25.070Z,33.60
2017-05-26T15:45:54.215Z,34.30
2017-05-26T15:48:23.443Z,35.10
2017-05-26T15:50:52.906Z,35.90
2017-05-26T15:53:22.457Z,35.80
2017-05-26T15:55:51.635Z,35.40
2017-05-26T15:58:21.105Z,35.10
2017-05-26T16:00:51.256Z,35.30
2017-05-26T16:03:20.464Z,36.50
2017-05-26T16:05:49.716Z,37.50
2017-05-26T16:08:18.950Z,38.40
2017-05-26T16:10:48.908Z,38.50
2017-05-26T16:13:18.131Z,38.30
2017-05-26T16:15:47.357Z,38.70
2017-05-26T16:18:16.580Z,38.50
2017-05-26T16:20:45.766Z,38.20
2017-05-26T16:23:14.977Z,36.80
2017-05-26T16:25:44.160Z,35.60
2017-05-26T16:28:13.357Z,36.10
2017-05-26T16:30:42.563Z,37.10
2017-05-26T16:33:11.740Z,37.80
2017-05-26T16:35:40.969Z,38.00
2017-05-26T16:38:09.404Z,37.90
2017-05-26T16:40:38.743Z,39.00
2017-05-26T16:43:07.945Z,39.30
2017-05-26T16:45:37.153Z,39.30
2017-05-26T16:48:06.394Z,39.50
2017-05-26T16:50:35.555Z,38.70
2017-05-26T16:53:04.744Z,37.30
2017-05-26T16:55:33.868Z,36.70
2017-05-26T16:58:03.009Z,36.40
2017-05-26T17:00:33.168Z,36.60
2017-05-26T17:03:02.595Z,36.40
2017-05-26T17:05:31.717Z,36.50
2017-05-26T17:08:00.941Z,37.30
2017-05-26T17:10:30.690Z,37.50
2017-05-26T17:13:05.811Z,37.30
2017-05-26T17:15:35.073Z,37.40
2017-05-26T17:18:04.366Z,37.50
2017-05-26T17:20:33.622Z,37.80
2017-05-26T17:23:02.804Z,37.60
2017-05-26T17:25:31.980Z,37.60
2017-05-26T17:28:02.401Z,37.70
2017-05-26T17:30:31.591Z,37.90
2017-05-26T17:33:00.724Z,37.70
2017-05-26T17:35:30.196Z,37.40
2017-05-26T17:37:59.365Z,37.10
2017-05-26T17:40:28.471Z,36.80
2017-05-26T17:42:57.749Z,36.60
2017-05-26T17:45:26.874Z,36.80
2017-05-26T17:47:56.011Z,36.70
2017-05-26T17:50:25.247Z,36.00
2017-05-26T17:52:54.380Z,34.50
2017-05-26T17:55:23.544Z,33.40
2017-05-26T17:57:52.811Z,32.50
2017-05-26T18:00:22.414Z,31.50
2017-05-26T18:02:51.542Z,30.70
2017-05-26T18:05:20.863Z,30.00
2017-05-26T18:07:49.968Z,29.50
2017-05-26T18:10:19.053Z,28.90
2017-05-26T18:12:47.632Z,28.80
2017-05-26T18:15:16.706Z,27.90
2017-05-26T18:17:45.815Z,27.60
2017-05-26T18:20:15.062Z,27.30
2017-05-26T18:22:44.160Z,27.00
2017-05-26T18:25:13.569Z,26.80
2017-05-26T18:27:42.796Z,26.70
2017-05-26T18:30:11.906Z,26.40
2017-05-26T18:32:41.026Z,26.20
2017-05-26T18:35:10.159Z,26.10
2017-05-26T18:37:39.252Z,25.80
2017-05-26T18:40:09.756Z,25.60
2017-05-26T18:42:38.939Z,25.40
2017-05-26T18:45:08.060Z,25.30
2017-05-26T18:47:37.296Z,25.20
2017-05-26T18:50:06.398Z,25.00
2017-05-26T18:52:35.516Z,24.80
2017-05-26T18:55:04.732Z,24.70
2017-05-26T18:57:33.843Z,24.50
2017-05-26T19:00:02.944Z,24.40
2017-05-26T19:05:07.376Z,24.10
2017-05-26T19:07:36.849Z,24.00
2017-05-26T19:10:05.947Z,23.80
2017-05-26T19:12:35.066Z,23.60
2017-05-26T19:15:04.295Z,23.60
2017-05-26T19:17:33.394Z,23.40
2017-05-26T19:20:02.497Z,23.30
2017-05-26T19:22:31.622Z,23.20
2017-05-26T19:25:01.115Z,23.00
2017-05-26T19:27:30.405Z,23.00
2017-05-26T19:29:59.527Z,22.80
2017-05-26T19:32:28.596Z,22.70
2017-05-26T19:34:57.913Z,22.60
2017-05-26T19:37:26.947Z,22.50
2017-05-26T19:42:31.490Z,22.30
2017-05-26T19:45:00.567Z,22.20
2017-05-26T19:47:29.807Z,22.20
2017-05-26T19:49:58.961Z,22.10
2017-05-26T19:52:28.056Z,22.00
2017-05-26T19:54:57.160Z,21.90
2017-05-26T19:57:26.295Z,21.80
2017-05-26T19:59:55.540Z,21.80
2017-05-26T20:02:24.643Z,21.70
2017-05-26T20:04:53.792Z,21.60
2017-05-26T20:07:22.923Z,21.60
2017-05-26T20:09:51.996Z,21.50
2017-05-26T20:12:21.283Z,21.40
2017-05-26T20:14:52.831Z,21.30
2017-05-26T20:17:22.063Z,21.30
2017-05-26T20:19:51.171Z,21.20
2017-05-26T20:22:20.239Z,21.20
2017-05-26T20:24:49.351Z,21.10
2017-05-26T20:27:18.427Z,21.10
2017-05-26T20:29:47.644Z,21.00
2017-05-26T20:32:16.747Z,20.90
2017-05-26T20:34:45.818Z,20.90
2017-05-26T20:37:15.093Z,20.80
2017-05-26T20:39:44.188Z,20.80
2017-05-26T20:42:13.315Z,20.70
2017-05-26T20:44:42.556Z,20.70
2017-05-26T20:47:11.659Z,20.70
2017-05-26T20:49:40.773Z,20.60
2017-05-26T20:52:09.980Z,20.60
2017-05-26T20:54:39.052Z,20.50
2017-05-26T20:57:08.147Z,20.50
2017-05-26T20:59:37.277Z,20.40
2017-05-26T21:02:06.353Z,20.40
2017-05-26T21:04:35.592Z,20.30
2017-05-26T21:07:04.683Z,20.30
2017-05-26T21:09:33.791Z,20.20
2017-05-26T21:12:03.026Z,20.20
2017-05-26T21:14:32.132Z,20.10
2017-05-26T21:17:01.256Z,20.00
2017-05-26T21:19:30.383Z,20.00
2017-05-26T21:21:59.468Z,19.90
2017-05-26T21:24:28.690Z,19.90
2017-05-26T21:26:57.799Z,19.80
2017-05-26T21:29:26.903Z,19.80
2017-05-26T21:31:56.160Z,19.70
2017-05-26T21:34:25.238Z,19.70
2017-05-26T21:36:54.643Z,19.60
2017-05-26T21:39:23.739Z,19.50
2017-05-26T21:41:52.867Z,19.50
2017-05-26T21:44:21.967Z,19.40
2017-05-26T21:46:51.123Z,19.40
2017-05-26T21:49:20.429Z,19.30
2017-05-26T21:51:49.512Z,19.20
2017-05-26T21:54:18.869Z,19.20
2017-05-26T21:56:47.991Z,19.20
2017-05-26T21:59:17.063Z,19.10
2017-05-26T22:01:46.479Z,19.10
2017-05-26T22:04:15.591Z,19.00
2017-05-26T22:06:44.723Z,19.00
2017-05-26T22:09:13.037Z,19.00
2017-05-26T22:11:42.126Z,18.90
2017-05-26T22:14:11.392Z,18.90
2017-05-26T22:16:40.478Z,18.80
2017-05-26T22:19:09.554Z,18.80
2017-05-26T22:21:38.657Z,18.70
2017-05-26T22:24:07.770Z,18.70
2017-05-26T22:26:37.059Z,18.60
2017-05-26T22:29:06.147Z,18.60
2017-05-26T22:31:35.230Z,18.50
2017-05-26T22:34:04.350Z,18.50
2017-05-26T22:36:33.447Z,18.40
2017-05-26T22:39:02.567Z,18.40
2017-05-26T22:41:31.667Z,18.40
2017-05-26T22:44:00.891Z,18.30
2017-05-26T22:46:30.024Z,18.30
2017-05-26T22:48:59.116Z,18.20
2017-05-26T22:51:28.262Z,18.20
2017-05-26T22:53:57.358Z,18.20
2017-05-26T22:56:26.474Z,18.10
2017-05-26T22:58:55.580Z,18.10
2017-05-26T23:01:24.964Z,18.00
2017-05-26T23:03:54.075Z,18.00
2017-05-26T23:06:23.175Z,18.00
2017-05-26T23:08:52.411Z,17.90
2017-05-26T23:11:21.507Z,17.90
2017-05-26T23:13:50.600Z,17.80
2017-05-26T23:16:19.708Z,17.80
2017-05-26T23:18:48.791Z,17.80
2017-05-26T23:21:18.000Z,17.70
2017-05-26T23:23:47.071Z,17.70
2017-05-26T23:26:16.136Z,17.60
2017-05-26T23:28:45.240Z,17.60
2017-05-26T23:31:14.336Z,17.60
2017-05-26T23:33:43.506Z,17.50
2017-05-26T23:36:12.582Z,17.50
2017-05-26T23:38:41.648Z,17.50
2017-05-26T23:41:10.743Z,17.50
2017-05-26T23:43:39.847Z,17.40
2017-05-26T23:46:09.035Z,17.40
2017-05-26T23:48:38.131Z,17.40
2017-05-26T23:51:07.229Z,17.40
2017-05-26T23:53:36.328Z,17.40
2017-05-26T23:56:05.410Z,17.30
2017-05-26T23:58:34.731Z,17.30
